Time;durP1;ratioP1;P1;durP2;ratioP2;P2;SDS_P1;SDS_P2;PMS_P1;PMS_P2;Temp;Humidity;BMP_temperature;BMP_pressure;BME280_temperature;BME280_humidity;BME280_pressure;Samples;Min_cycle;Max_cycle;Signal;HPM_P1;HPM_P2
2022/09/17 00:00:20;;;;;;;14.43;3.00;;;;;;;9.72;100.00;101300.72;5028770;28;20025;-81
2022/09/17 00:02:51;;;;;;;14.65;2.90;;;;;;;9.76;100.00;101304.00;5011138;28;20448;-80
2022/09/17 00:05:16;;;;;;;17.10;3.35;;;;;;;9.77;100.00;101299.56;5029230;28;20021;-80
2022/09/17 00:07:41;;;;;;;13.15;2.80;;;;;;;9.76;100.00;101305.78;5029335;28;20481;-81
2022/09/17 00:10:07;;;;;;;16.08;3.00;;;;;;;9.77;100.00;101310.09;5010191;28;20034;-80
2022/09/17 00:12:32;;;;;;;13.10;2.95;;;;;;;9.77;100.00;101316.19;5010790;28;20050;-81
2022/09/17 00:14:58;;;;;;;16.08;2.90;;;;;;;9.81;100.00;101312.41;5027631;28;20025;-81
2022/09/17 00:17:23;;;;;;;11.98;2.72;;;;;;;9.79;100.00;101323.97;5028409;28;20028;-80
2022/09/17 00:19:48;;;;;;;13.85;3.00;;;;;;;9.80;100.00;101315.16;5028760;28;20021;-80
2022/09/17 00:22:14;;;;;;;12.55;2.65;;;;;;;9.81;100.00;101319.47;5028385;28;20029;-81
2022/09/17 00:24:40;;;;;;;14.93;2.90;;;;;;;9.82;100.00;101308.84;5010717;28;20033;-81
2022/09/17 00:27:05;;;;;;;21.33;3.30;;;;;;;9.82;100.00;101308.84;5028090;28;20025;-81
2022/09/17 00:29:30;;;;;;;10.30;2.40;;;;;;;9.85;100.00;101298.16;5011910;28;20028;-81
2022/09/17 00:31:56;;;;;;;14.98;3.17;;;;;;;9.84;100.00;101306.97;5028016;28;20025;-81
2022/09/17 00:34:21;;;;;;;13.82;3.08;;;;;;;9.87;100.00;101316.44;5028776;28;20032;-80
2022/09/17 00:36:47;;;;;;;15.15;2.95;;;;;;;9.88;100.00;101318.97;5028728;28;20112;-80
2022/09/17 00:39:14;;;;;;;12.40;2.63;;;;;;;9.92;100.00;101324.88;5009952;28;20025;-81
2022/09/17 00:41:40;;;;;;;13.25;2.78;;;;;;;9.89;100.00;101319.81;5011189;28;20036;-81
2022/09/17 00:44:39;;;;;;;15.25;2.53;;;;;;;9.94;100.00;101325.63;5024757;28;20034;-81
2022/09/17 00:47:12;;;;;;;20.65;3.10;;;;;;;9.89;100.00;101332.97;5008815;28;20031;-80
2022/09/17 00:49:37;;;;;;;19.70;3.13;;;;;;;9.93;100.00;101324.78;4991446;28;20021;-81
2022/09/17 00:52:23;;;;;;;18.42;3.28;;;;;;;10.00;100.00;101322.59;5009825;28;20036;-81
2022/09/17 00:54:55;;;;;;;15.95;2.60;;;;;;;9.97;100.00;101315.75;5011900;28;20058;-81
2022/09/17 00:57:21;;;;;;;17.02;2.83;;;;;;;9.97;100.00;101322.78;5022906;28;20033;-81
2022/09/17 00:59:47;;;;;;;15.10;2.83;;;;;;;9.99;100.00;101326.16;5032247;28;20055;-81
2022/09/17 01:02:12;;;;;;;14.93;2.83;;;;;;;9.97;100.00;101338.56;5031452;28;20029;-81
2022/09/17 01:04:38;;;;;;;12.55;2.65;;;;;;;9.97;100.00;101338.56;5015098;28;20023;-81
2022/09/17 01:07:34;;;;;;;15.82;2.88;;;;;;;9.99;100.00;101337.53;5031388;28;20040;-81
2022/09/17 01:10:25;;;;;;;11.73;2.42;;;;;;;9.97;100.00;101328.91;5032677;28;20029;-81
2022/09/17 01:13:06;;;;;;;14.00;2.75;;;;;;;9.96;100.00;101337.72;4993455;28;20436;-82
2022/09/17 01:15:48;;;;;;;13.95;2.40;;;;;;;9.97;100.00;101331.53;5030962;28;20285;-81
2022/09/17 01:18:25;;;;;;;13.32;2.60;;;;;;;9.96;100.00;101329.00;5008489;28;20025;-82
2022/09/17 01:21:00;;;;;;;15.68;2.95;;;;;;;9.93;100.00;101332.66;5009899;28;20113;-81
2022/09/17 01:23:46;;;;;;;10.40;2.58;;;;;;;9.91;100.00;101324.03;5011842;28;20115;-81
2022/09/17 01:26:35;;;;;;;15.68;3.00;;;;;;;9.97;100.00;101339.41;5023167;28;20026;-81
2022/09/17 01:29:06;;;;;;;17.02;2.97;;;;;;;9.97;100.00;101344.66;5021717;28;20097;-82
2022/09/17 01:31:37;;;;;;;14.55;2.95;;;;;;;9.98;100.00;101342.88;5031979;28;20025;-83
2022/09/17 01:34:38;;;;;;;14.77;2.95;;;;;;;10.05;100.00;101354.72;5012109;28;20083;-79
2022/09/17 01:37:22;;;;;;;12.38;2.65;;;;;;;10.04;100.00;101350.41;4996932;28;20054;-81
2022/09/17 01:40:16;;;;;;;10.88;2.38;;;;;;;10.07;100.00;101347.56;5012095;28;20029;-81
2022/09/17 01:43:05;;;;;;;12.20;2.60;;;;;;;10.05;100.00;101355.56;5004326;28;20028;-81
2022/09/17 01:45:43;;;;;;;11.38;2.70;;;;;;;10.05;100.00;101347.69;5031514;28;20036;-81
2022/09/17 01:48:11;;;;;;;15.95;2.90;;;;;;;10.04;100.00;101353.88;5011911;28;20033;-83
2022/09/17 01:50:41;;;;;;;13.07;2.50;;;;;;;10.08;100.00;101356.31;5031716;28;20105;-84
2022/09/17 01:53:11;;;;;;;11.85;2.88;;;;;;;10.02;100.00;101357.56;5013549;28;20053;-84
2022/09/17 01:55:39;;;;;;;14.18;2.78;;;;;;;10.01;100.00;101367.22;5024308;28;20029;-84
2022/09/17 01:58:13;;;;;;;15.63;2.70;;;;;;;10.00;100.00;101365.50;5031230;28;20022;-81
2022/09/17 02:00:42;;;;;;;15.90;2.75;;;;;;;9.98;100.00;101367.38;5013933;28;20029;-81
2022/09/17 02:03:25;;;;;;;12.27;2.80;;;;;;;9.99;100.00;101360.34;5029546;28;20492;-80
2022/09/17 02:06:03;;;;;;;9.70;2.33;;;;;;;9.98;100.00;101356.88;5013975;28;20041;-84
2022/09/17 02:09:12;;;;;;;14.73;2.85;;;;;;;9.96;100.00;101361.38;5030298;28;20316;-83
2022/09/17 02:11:40;;;;;;;12.55;2.88;;;;;;;9.92;100.00;101351.16;4950716;28;20038;-84
2022/09/17 02:14:13;;;;;;;15.98;2.70;;;;;;;9.92;100.00;101353.78;4950611;28;20479;-82
2022/09/17 02:16:45;;;;;;;14.00;2.60;;;;;;;9.93;100.00;101347.59;4967322;28;20037;-82
2022/09/17 02:19:28;;;;;;;14.23;2.92;;;;;;;9.93;100.00;101352.84;5029099;28;20022;-83
2022/09/17 02:22:19;;;;;;;14.90;2.55;;;;;;;9.92;100.00;101351.16;5011206;28;20025;-83
2022/09/17 02:24:58;;;;;;;8.98;2.58;;;;;;;9.93;100.00;101364.22;5016244;28;20029;-82
2022/09/17 02:27:30;;;;;;;13.63;2.65;;;;;;;9.91;100.00;101352.94;5011119;28;20136;-83
2022/09/17 02:29:55;;;;;;;12.50;2.72;;;;;;;9.90;100.00;101363.56;5029935;28;20026;-83
2022/09/17 02:32:21;;;;;;;14.90;2.75;;;;;;;9.87;100.00;101364.59;5028950;28;20289;-82
2022/09/17 02:34:46;;;;;;;10.30;2.55;;;;;;;9.88;100.00;101361.03;5030725;28;20516;-82
2022/09/17 02:37:12;;;;;;;14.07;2.70;;;;;;;9.88;100.00;101368.06;5029341;28;20026;-82
2022/09/17 02:39:37;;;;;;;13.32;2.70;;;;;;;9.88;100.00;101376.78;5030690;28;20108;-82
2022/09/17 02:42:27;;;;;;;10.50;2.50;;;;;;;9.90;100.00;101379.31;5030051;28;20037;-82
2022/09/17 02:45:07;;;;;;;14.38;2.67;;;;;;;9.86;100.00;101376.06;5024560;28;20032;-82
2022/09/17 02:47:50;;;;;;;13.57;2.67;;;;;;;9.85;100.00;101381.41;5027513;28;20040;-82
2022/09/17 02:50:47;;;;;;;14.40;2.60;;;;;;;9.85;100.00;101382.25;5011851;28;20037;-82
2022/09/17 02:53:46;;;;;;;14.80;2.65;;;;;;;9.84;100.00;101379.72;5012226;28;20029;-82
2022/09/17 02:56:47;;;;;;;14.23;2.95;;;;;;;9.80;100.00;101375.59;5029951;28;20048;-82
2022/09/17 02:59:29;;;;;;;15.13;2.50;;;;;;;9.70;100.00;101375.31;5029177;28;20432;-82
2022/09/17 03:01:57;;;;;;;10.65;2.10;;;;;;;9.69;100.00;101376.25;5018931;28;20033;-82
2022/09/17 03:04:26;;;;;;;11.23;2.80;;;;;;;9.64;100.00;101373.94;5009297;28;20026;-82
2022/09/17 03:06:52;;;;;;;17.23;2.97;;;;;;;9.65;100.00;101375.59;5009992;28;20112;-82
2022/09/17 03:09:18;;;;;;;15.10;2.97;;;;;;;9.62;100.00;101369.69;5010431;28;20034;-84
2022/09/17 03:11:43;;;;;;;11.48;2.65;;;;;;;9.59;100.00;101364.59;4992306;28;20041;-83
2022/09/17 03:14:11;;;;;;;10.57;2.35;;;;;;;9.57;100.00;101369.13;5009893;28;20057;-83
2022/09/17 03:16:36;;;;;;;16.13;2.95;;;;;;;9.58;100.00;101371.66;4998955;28;20069;-83
2022/09/17 03:19:02;;;;;;;12.43;2.22;;;;;;;9.56;100.00;101370.06;5013824;28;20060;-84
2022/09/17 03:21:27;;;;;;;13.40;2.85;;;;;;;9.58;100.00;101381.31;5029443;28;20036;-83
2022/09/17 03:23:53;;;;;;;9.13;2.20;;;;;;;9.58;100.00;101370.81;5030218;28;20023;-84
2022/09/17 03:26:18;;;;;;;13.30;2.60;;;;;;;9.59;100.00;101369.88;5028693;28;20096;-84
2022/09/17 03:28:43;;;;;;;13.18;2.53;;;;;;;9.61;100.00;101374.13;5029719;28;20026;-84
2022/09/17 03:31:12;;;;;;;13.73;2.63;;;;;;;9.62;100.00;101372.34;5029355;28;20033;-83
2022/09/17 03:33:37;;;;;;;13.90;2.50;;;;;;;9.64;100.00;101363.41;5028764;28;20036;-83
2022/09/17 03:36:03;;;;;;;13.23;2.70;;;;;;;9.64;100.00;101368.66;4994918;28;20101;-83
2022/09/17 03:38:28;;;;;;;15.25;2.83;;;;;;;9.61;100.00;101363.59;5009913;28;20108;-83
2022/09/17 03:41:02;;;;;;;12.98;2.42;;;;;;;9.62;100.00;101367.06;5007882;28;20454;-83
2022/09/17 03:43:28;;;;;;;12.93;2.60;;;;;;;9.60;100.00;101363.66;5011696;28;20044;-83
2022/09/17 03:45:54;;;;;;;13.63;2.40;;;;;;;9.56;100.00;101370.06;5012264;28;20105;-83
2022/09/17 03:48:19;;;;;;;12.90;2.30;;;;;;;9.57;100.00;101361.22;5010050;28;20449;-81
2022/09/17 03:50:45;;;;;;;10.10;2.58;;;;;;;9.47;100.00;101371.47;5011856;28;20017;-82
2022/09/17 03:53:10;;;;;;;13.05;2.60;;;;;;;9.49;100.00;101369.59;5019975;28;20521;-81
2022/09/17 03:55:39;;;;;;;15.55;2.78;;;;;;;9.43;100.00;101376.06;5009141;28;20116;-82
2022/09/17 03:58:04;;;;;;;11.38;2.50;;;;;;;9.45;100.00;101372.50;5025208;28;20035;-83
2022/09/17 04:00:30;;;;;;;11.63;2.53;;;;;;;9.36;100.00;101374.75;5012041;28;20037;-82
2022/09/17 04:02:56;;;;;;;9.52;2.38;;;;;;;9.35;100.00;101383.56;5028888;28;20047;-83
2022/09/17 04:05:21;;;;;;;11.35;2.33;;;;;;;9.36;100.00;101380.00;5029939;28;20025;-83
2022/09/17 04:07:46;;;;;;;13.60;2.13;;;;;;;9.34;100.00;101381.88;5029776;28;20034;-84
2022/09/17 04:10:11;;;;;;;12.00;2.42;;;;;;;9.33;100.00;101374.09;5016151;28;20042;-84
2022/09/17 04:12:38;;;;;;;13.10;2.53;;;;;;;9.30;100.00;101380.38;5009851;28;20073;-84
2022/09/17 04:15:04;;;;;;;10.85;2.22;;;;;;;9.30;100.00;101384.78;5007902;28;20028;-81
2022/09/17 04:17:30;;;;;;;13.05;2.28;;;;;;;9.29;100.00;101381.31;5009495;28;20132;-81
2022/09/17 04:19:55;;;;;;;10.40;2.40;;;;;;;9.20;100.00;101384.47;5016358;28;20104;-84
2022/09/17 04:22:21;;;;;;;11.15;2.00;;;;;;;9.23;100.00;101393.97;5028360;28;20290;-84
2022/09/17 04:24:46;;;;;;;10.82;2.03;;;;;;;9.23;100.00;101391.34;5011932;28;20049;-84
2022/09/17 04:27:11;;;;;;;13.70;2.40;;;;;;;9.18;100.00;101385.50;5017559;28;20116;-84
2022/09/17 04:29:37;;;;;;;12.15;2.20;;;;;;;9.15;100.00;101389.16;4995874;28;20029;-82
2022/09/17 04:32:02;;;;;;;11.23;1.98;;;;;;;9.12;100.00;101391.97;5013293;28;20064;-84
2022/09/17 04:34:28;;;;;;;9.23;2.03;;;;;;;9.10;100.00;101391.19;4995655;28;20386;-84
2022/09/17 04:36:53;;;;;;;14.88;2.40;;;;;;;9.12;100.00;101389.34;5012912;28;20042;-84
2022/09/17 04:39:19;;;;;;;13.40;2.33;;;;;;;9.13;100.00;101388.41;5013028;28;20026;-84
2022/09/17 04:41:44;;;;;;;11.07;2.63;;;;;;;9.13;100.00;101398.91;5022057;28;20044;-84
2022/09/17 04:44:09;;;;;;;9.18;2.08;;;;;;;9.18;100.00;101415.22;5018560;28;20030;-82
2022/09/17 04:46:35;;;;;;;11.50;2.15;;;;;;;9.17;100.00;101410.91;4995120;28;20041;-84
2022/09/17 04:49:01;;;;;;;17.02;2.50;;;;;;;9.19;100.00;101410.81;5012944;28;20074;-83
2022/09/17 04:51:27;;;;;;;14.10;2.67;;;;;;;9.20;100.00;101405.47;5012508;28;20060;-83
2022/09/17 04:53:52;;;;;;;13.07;2.60;;;;;;;9.22;100.00;101398.38;4995534;28;20034;-83
2022/09/17 04:56:17;;;;;;;15.68;2.58;;;;;;;9.24;100.00;101391.25;4996176;28;20057;-82
2022/09/17 04:58:43;;;;;;;11.60;2.80;;;;;;;9.24;100.00;101386.00;5014071;28;20495;-83
2022/09/17 05:01:08;;;;;;;15.57;2.55;;;;;;;9.28;100.00;101386.66;5013626;28;20076;-84
2022/09/17 05:03:33;;;;;;;12.73;2.50;;;;;;;9.31;100.00;101397.81;5032811;28;20029;-82
2022/09/17 05:05:59;;;;;;;13.02;2.83;;;;;;;9.29;100.00;101394.44;5032232;28;20021;-84
2022/09/17 05:08:24;;;;;;;16.55;2.55;;;;;;;9.28;100.00;101400.63;5032706;28;20030;-84
2022/09/17 05:10:50;;;;;;;14.82;2.72;;;;;;;9.26;100.00;101399.03;5032431;28;20473;-84
2022/09/17 05:13:15;;;;;;;10.82;2.33;;;;;;;9.29;100.00;101409.34;5030715;28;20475;-85
2022/09/17 05:15:41;;;;;;;12.20;2.42;;;;;;;9.27;100.00;101406.81;5032618;28;20041;-85
2022/09/17 05:18:06;;;;;;;12.82;2.42;;;;;;;9.27;100.00;101404.19;5026312;28;20071;-85
2022/09/17 05:20:31;;;;;;;14.30;2.70;;;;;;;9.25;100.00;101408.69;5023430;28;20488;-85
2022/09/17 05:22:57;;;;;;;16.40;2.45;;;;;;;9.21;100.00;101399.31;5031884;28;20524;-86
2022/09/17 05:25:23;;;;;;;12.07;2.60;;;;;;;9.17;100.00;101412.69;5031332;28;20447;-86
2022/09/17 05:27:49;;;;;;;12.55;2.20;;;;;;;9.19;100.00;101414.28;5031179;28;20025;-86
2022/09/17 05:30:15;;;;;;;16.23;2.55;;;;;;;9.15;100.00;101414.56;5031502;28;20302;-85
2022/09/17 05:32:40;;;;;;;18.23;2.67;;;;;;;9.16;100.00;101424.97;5014041;28;20141;-85
2022/09/17 05:35:07;;;;;;;16.38;2.47;;;;;;;9.12;100.00;101428.72;5021943;28;20156;-85
2022/09/17 05:37:33;;;;;;;12.07;2.50;;;;;;;9.11;100.00;101421.78;4994669;28;20040;-86
2022/09/17 05:39:58;;;;;;;19.08;2.30;;;;;;;9.08;100.00;101417.53;5012075;28;20049;-85
2022/09/17 05:42:24;;;;;;;17.38;2.83;;;;;;;9.13;100.00;101425.16;5012062;28;20367;-85
2022/09/17 05:44:49;;;;;;;17.05;2.65;;;;;;;9.11;100.00;101417.38;5010709;28;20018;-85
2022/09/17 05:47:14;;;;;;;14.80;2.65;;;;;;;9.16;100.00;101419.72;4993695;28;20235;-85
2022/09/17 05:49:40;;;;;;;14.75;2.40;;;;;;;9.14;100.00;101420.75;5012292;28;20029;-86
2022/09/17 05:52:06;;;;;;;13.52;3.00;;;;;;;9.14;100.00;101432.09;5017152;28;20037;-85
2022/09/17 05:54:34;;;;;;;11.43;2.38;;;;;;;9.17;100.00;101429.28;4994043;28;20029;-85
2022/09/17 05:57:00;;;;;;;17.60;2.80;;;;;;;9.14;100.00;101431.25;5029620;28;20037;-85
2022/09/17 05:59:26;;;;;;;11.77;2.38;;;;;;;9.19;100.00;101445.78;5032011;28;20064;-85
2022/09/17 06:01:52;;;;;;;14.25;2.75;;;;;;;9.26;100.00;101451.56;5013428;28;20423;-85
2022/09/17 06:04:17;;;;;;;10.85;2.38;;;;;;;9.27;100.00;101454.09;5031187;28;20022;-84
2022/09/17 06:06:42;;;;;;;12.00;2.58;;;;;;;9.31;100.00;101460.84;5031909;28;20522;-85
2022/09/17 06:09:09;;;;;;;12.10;2.15;;;;;;;9.34;100.00;101471.16;5021775;28;20030;-85
2022/09/17 06:11:35;;;;;;;12.65;2.53;;;;;;;9.36;100.00;101465.81;5010240;28;20033;-85
2022/09/17 06:14:01;;;;;;;14.30;2.85;;;;;;;9.37;100.00;101460.47;5013392;28;20053;-85
2022/09/17 06:16:26;;;;;;;16.77;3.08;;;;;;;9.37;100.00;101457.84;5030049;28;20540;-85
2022/09/17 06:18:52;;;;;;;16.23;2.72;;;;;;;9.35;100.00;101457.09;5031431;28;20087;-85
2022/09/17 06:21:20;;;;;;;8.63;2.00;;;;;;;9.43;100.00;101467.16;5028860;28;20022;-85
2022/09/17 06:23:46;;;;;;;12.02;1.98;;;;;;;9.39;100.00;101463.84;5027401;28;20017;-85
2022/09/17 06:26:12;;;;;;;10.65;2.30;;;;;;;9.37;100.00;101462.25;5030083;28;20044;-85
2022/09/17 06:28:37;;;;;;;11.70;2.55;;;;;;;9.35;100.00;101462.34;5030455;28;20017;-84
2022/09/17 06:31:05;;;;;;;10.57;2.60;;;;;;;9.37;100.00;101460.47;5030208;28;20374;-84
2022/09/17 06:33:35;;;;;;;10.70;2.30;;;;;;;9.36;100.00;101458.78;5030826;28;20462;-85
2022/09/17 06:36:06;;;;;;;11.77;2.80;;;;;;;9.28;100.00;101463.66;5009889;28;20517;-85
2022/09/17 06:38:33;;;;;;;10.23;2.42;;;;;;;9.30;100.00;101460.94;5030831;28;20025;-85
2022/09/17 06:40:59;;;;;;;17.10;2.55;;;;;;;9.31;100.00;101458.22;5030692;28;20461;-84
2022/09/17 06:43:25;;;;;;;11.30;2.42;;;;;;;9.37;100.00;101464.88;5011546;28;20060;-84
2022/09/17 06:45:54;;;;;;;11.05;2.63;;;;;;;9.39;100.00;101458.59;5030746;28;20028;-85
2022/09/17 06:48:20;;;;;;;9.43;2.28;;;;;;;9.41;100.00;101459.34;5027582;28;20035;-83
2022/09/17 06:50:46;;;;;;;10.90;2.00;;;;;;;9.43;100.00;101457.47;5029584;28;20057;-85
2022/09/17 06:53:11;;;;;;;10.27;1.92;;;;;;;9.46;100.00;101452.97;5029749;28;20460;-83
2022/09/17 06:55:37;;;;;;;12.30;2.10;;;;;;;9.49;100.00;101453.66;5030423;28;20029;-84
2022/09/17 06:58:02;;;;;;;10.27;2.10;;;;;;;9.51;100.00;101445.66;5029148;28;20025;-83
2022/09/17 07:00:27;;;;;;;9.75;1.75;;;;;;;9.54;100.00;101445.47;5012093;28;20501;-84
2022/09/17 07:02:57;;;;;;;10.68;1.77;;;;;;;9.63;100.00;101450.22;5030094;28;20029;-83
2022/09/17 07:05:24;;;;;;;12.13;2.10;;;;;;;9.79;100.00;101458.00;5029373;28;20017;-83
2022/09/17 07:07:50;;;;;;;13.93;2.40;;;;;;;9.93;100.00;101461.47;5027019;28;20401;-84
2022/09/17 07:10:15;;;;;;;8.95;2.10;;;;;;;10.14;100.00;101458.47;5029894;28;20540;-83
2022/09/17 07:12:41;;;;;;;12.13;2.70;;;;;;;10.25;100.00;101463.91;5028778;28;20045;-83
2022/09/17 07:15:09;;;;;;;10.75;2.17;;;;;;;10.41;100.00;101469.94;5030188;28;20041;-81
2022/09/17 07:17:34;;;;;;;9.30;2.05;;;;;;;10.58;100.00;101459.16;5012231;28;20026;-83
2022/09/17 07:20:00;;;;;;;12.02;2.50;;;;;;;10.78;100.00;101470.16;5022134;28;20033;-82
2022/09/17 07:22:25;;;;;;;12.35;2.50;;;;;;;10.90;100.00;101458.88;4991027;28;20029;-84
2022/09/17 07:24:51;;;;;;;11.02;2.33;;;;;;;11.07;100.00;101460.38;5011982;28;20022;-84
2022/09/17 07:27:16;;;;;;;12.32;2.72;;;;;;;11.24;100.00;101463.59;5014025;28;21513;-84
2022/09/17 07:29:41;;;;;;;14.80;2.90;;;;;;;11.33;100.00;101463.91;5010626;28;20655;-83
2022/09/17 07:32:06;;;;;;;14.68;2.25;;;;;;;11.45;100.00;101463.94;5008967;28;20140;-82
2022/09/17 07:34:32;;;;;;;11.95;2.17;;;;;;;11.60;99.27;101468.16;5010081;28;20025;-83
2022/09/17 07:36:57;;;;;;;9.27;1.85;;;;;;;11.77;98.07;101461.72;4992496;28;20017;-83
2022/09/17 07:39:23;;;;;;;8.38;1.95;;;;;;;11.91;98.17;101461.66;4991954;28;20025;-83
2022/09/17 07:41:48;;;;;;;8.35;1.80;;;;;;;12.10;96.01;101457.72;5010582;28;20083;-85
2022/09/17 07:44:13;;;;;;;10.75;2.40;;;;;;;12.21;94.63;101463.94;5009289;28;20033;-85
2022/09/17 07:46:39;;;;;;;9.30;1.60;;;;;;;12.25;91.52;101454.00;4992022;28;20069;-85
2022/09/17 07:49:04;;;;;;;7.55;1.52;;;;;;;12.39;90.44;101456.47;5009810;28;20018;-85
2022/09/17 07:51:29;;;;;;;6.10;1.30;;;;;;;12.48;90.56;101455.00;5009903;28;20482;-84
2022/09/17 07:53:56;;;;;;;5.00;1.40;;;;;;;12.50;90.00;101458.38;4990714;28;20359;-83
2022/09/17 07:56:23;;;;;;;10.38;1.48;;;;;;;12.50;90.34;101459.22;4989441;28;20026;-83
2022/09/17 07:58:48;;;;;;;9.48;1.65;;;;;;;12.61;89.63;101460.22;5009239;28;20032;-83
2022/09/17 08:01:19;;;;;;;8.00;1.63;;;;;;;12.53;90.66;101461.63;4990904;28;20025;-83
2022/09/17 08:03:52;;;;;;;7.50;1.83;;;;;;;12.78;91.06;101458.03;5009776;28;20026;-83
2022/09/17 08:06:20;;;;;;;9.35;1.70;;;;;;;12.91;89.33;101454.50;5009152;28;20018;-84
2022/09/17 08:08:46;;;;;;;8.20;1.63;;;;;;;13.03;90.61;101457.06;4991241;28;20034;-84
2022/09/17 08:11:14;;;;;;;7.25;1.40;;;;;;;13.25;89.00;101461.63;5008940;28;20025;-83
2022/09/17 08:13:40;;;;;;;7.70;1.67;;;;;;;13.36;88.75;101455.53;5024893;28;20076;-84
2022/09/17 08:16:12;;;;;;;6.00;1.48;;;;;;;13.24;85.90;101457.31;5010071;28;20068;-84
2022/09/17 08:18:38;;;;;;;6.35;1.48;;;;;;;13.32;86.08;101460.22;5029037;28;20379;-83
2022/09/17 08:21:05;;;;;;;8.38;1.52;;;;;;;13.40;84.45;101464.91;5022013;28;20045;-84
2022/09/17 08:23:33;;;;;;;6.80;1.35;;;;;;;13.40;86.45;101464.91;5010875;28;20026;-83
2022/09/17 08:25:59;;;;;;;6.95;1.67;;;;;;;13.54;82.01;101462.06;5011203;28;20029;-83
2022/09/17 08:28:26;;;;;;;8.40;1.63;;;;;;;13.63;80.61;101461.38;5027796;28;20366;-83
2022/09/17 08:30:53;;;;;;;6.45;1.30;;;;;;;13.80;83.66;101457.41;5029336;28;20037;-84
2022/09/17 08:33:19;;;;;;;6.57;1.45;;;;;;;13.86;79.96;101453.44;5028196;28;20105;-84
2022/09/17 08:35:58;;;;;;;6.40;1.40;;;;;;;13.98;79.77;101463.06;5010834;28;20064;-84
2022/09/17 08:38:28;;;;;;;4.72;1.08;;;;;;;14.07;78.74;101463.19;5028743;28;20072;-83
2022/09/17 08:41:09;;;;;;;5.53;1.55;;;;;;;14.27;80.72;101466.91;5011366;28;20033;-83
2022/09/17 08:43:59;;;;;;;5.82;1.50;;;;;;;14.32;79.07;101470.00;5010198;28;20083;-83
2022/09/17 08:46:25;;;;;;;7.30;1.20;;;;;;;14.50;78.22;101472.22;5017993;28;20037;-85
2022/09/17 08:48:57;;;;;;;5.43;1.20;;;;;;;14.61;77.64;101469.53;5011490;28;20040;-83
2022/09/17 08:51:48;;;;;;;7.25;1.42;;;;;;;14.68;78.06;101476.00;5010407;28;20389;-83
2022/09/17 08:54:30;;;;;;;6.78;1.27;;;;;;;14.80;76.88;101475.00;5010764;28;20417;-82
2022/09/17 08:57:08;;;;;;;6.82;1.50;;;;;;;14.85;78.17;101478.13;5027870;28;20112;-81
2022/09/17 08:59:54;;;;;;;4.88;1.35;;;;;;;14.99;76.29;101475.19;5028170;28;20610;-85
2022/09/17 09:02:47;;;;;;;4.78;1.50;;;;;;;15.14;74.84;101472.22;5012995;28;20551;-84
2022/09/17 09:05:17;;;;;;;7.78;1.63;;;;;;;15.34;74.97;101472.25;4990395;28;20038;-82
2022/09/17 09:07:49;;;;;;;5.68;1.23;;;;;;;15.25;74.61;101466.88;5009354;28;20030;-82
2022/09/17 09:10:22;;;;;;;5.72;1.60;;;;;;;15.36;75.73;101475.63;5010320;28;20124;-83
2022/09/17 09:12:49;;;;;;;6.55;1.70;;;;;;;15.29;77.76;101481.56;5028910;28;20062;-82
2022/09/17 09:15:22;;;;;;;6.47;1.50;;;;;;;14.83;75.28;101484.53;5031712;28;20029;-81
2022/09/17 09:17:50;;;;;;;9.30;1.60;;;;;;;14.53;77.38;101491.34;5032012;28;20080;-82
2022/09/17 09:20:20;;;;;;;5.88;1.30;;;;;;;14.33;77.86;101492.88;5013020;28;20176;-81
2022/09/17 09:22:49;;;;;;;8.90;1.80;;;;;;;14.13;78.49;101485.69;5032414;28;20452;-82
2022/09/17 09:25:28;;;;;;;8.93;1.40;;;;;;;14.27;79.61;101482.78;5031120;28;20010;-81
2022/09/17 09:28:04;;;;;;;8.63;1.70;;;;;;;14.50;82.03;101485.44;5032272;28;20033;-81
2022/09/17 09:30:42;;;;;;;7.70;1.30;;;;;;;14.81;78.14;101487.31;5032577;28;20695;-82
2022/09/17 09:33:18;;;;;;;10.30;1.50;;;;;;;14.90;76.93;101475.94;5030170;28;20021;-81
2022/09/17 09:35:44;;;;;;;6.97;1.30;;;;;;;15.16;76.69;101467.63;5032391;28;20057;-81
2022/09/17 09:38:45;;;;;;;7.57;1.63;;;;;;;15.22;72.56;101469.78;5031837;28;20505;-80
2022/09/17 09:41:16;;;;;;;9.80;1.60;;;;;;;15.22;71.75;101477.75;5011700;28;20041;-81
2022/09/17 09:44:00;;;;;;;6.82;1.15;;;;;;;15.04;71.99;101478.28;5014309;28;20028;-81
2022/09/17 09:46:56;;;;;;;8.40;1.70;;;;;;;14.98;74.80;101472.66;5030903;28;20075;-82
2022/09/17 09:49:43;;;;;;;6.78;1.63;;;;;;;14.87;74.00;101481.50;5021788;28;20448;-83
2022/09/17 09:52:11;;;;;;;5.85;1.30;;;;;;;14.63;70.42;101486.97;5031547;28;20025;-81
2022/09/17 09:54:39;;;;;;;5.25;1.10;;;;;;;14.45;67.47;101487.63;5013725;28;20084;-82
2022/09/17 09:57:12;;;;;;;7.80;1.25;;;;;;;14.44;70.66;101488.59;5031687;28;20389;-81
2022/09/17 09:59:40;;;;;;;4.13;0.93;;;;;;;14.33;69.78;101492.03;5031710;28;20540;-80
2022/09/17 10:02:06;;;;;;;4.82;0.80;;;;;;;14.22;70.11;101489.41;5023072;28;20056;-81
2022/09/17 10:04:34;;;;;;;4.93;0.90;;;;;;;14.15;67.67;101489.06;5013959;28;20532;-81
2022/09/17 10:07:04;;;;;;;6.68;1.10;;;;;;;14.23;70.78;101491.09;5030784;28;20067;-81
2022/09/17 10:09:33;;;;;;;5.85;1.10;;;;;;;14.37;69.48;101489.00;5013086;28;20034;-82
2022/09/17 10:12:04;;;;;;;5.53;1.20;;;;;;;14.64;71.24;101490.47;5029928;28;20429;-82
2022/09/17 10:14:32;;;;;;;3.67;1.15;;;;;;;14.97;69.92;101486.88;5012821;28;20494;-80
2022/09/17 10:17:16;;;;;;;6.53;1.08;;;;;;;15.28;71.36;101477.25;5031225;28;20029;-82
2022/09/17 10:19:43;;;;;;;5.10;1.17;;;;;;;15.15;67.33;101473.91;5013986;28;20021;-81
2022/09/17 10:22:18;;;;;;;6.88;1.10;;;;;;;15.24;69.69;101483.75;5012702;28;20442;-83
2022/09/17 10:24:44;;;;;;;7.43;1.30;;;;;;;15.30;69.31;101480.59;5030910;28;20064;-82
2022/09/17 10:27:16;;;;;;;4.88;1.00;;;;;;;15.44;68.07;101474.13;5010304;28;20025;-82
2022/09/17 10:29:44;;;;;;;5.72;0.98;;;;;;;15.59;68.47;101473.69;5010200;28;20553;-82
2022/09/17 10:32:19;;;;;;;6.10;1.10;;;;;;;15.76;67.62;101474.06;5011390;28;20022;-81
2022/09/17 10:35:13;;;;;;;5.03;1.13;;;;;;;15.93;69.53;101476.09;5010617;28;20030;-82
2022/09/17 10:37:47;;;;;;;5.95;1.30;;;;;;;15.69;71.79;101472.94;5015277;28;20547;-82
2022/09/17 10:40:25;;;;;;;7.93;1.40;;;;;;;15.37;74.91;101484.41;5030560;28;20469;-82
2022/09/17 10:43:15;;;;;;;4.70;0.93;;;;;;;14.97;74.29;101477.13;5011567;28;20390;-82
2022/09/17 10:45:44;;;;;;;4.13;1.05;;;;;;;14.48;75.87;101482.06;5013692;28;20025;-82
2022/09/17 10:48:17;;;;;;;4.65;0.90;;;;;;;14.24;77.83;101477.72;5030987;28;20031;-80
2022/09/17 10:50:48;;;;;;;7.30;0.93;;;;;;;14.15;79.54;101483.75;5030885;28;20622;-81
2022/09/17 10:53:18;;;;;;;5.65;0.82;;;;;;;14.38;80.15;101484.56;5012868;28;20501;-82
2022/09/17 10:56:08;;;;;;;6.60;0.90;;;;;;;14.34;80.14;101483.97;5013308;28;20042;-82
2022/09/17 10:58:54;;;;;;;5.07;1.05;;;;;;;14.17;79.05;101473.88;5029323;28;20063;-83
2022/09/17 11:01:29;;;;;;;4.25;0.80;;;;;;;14.26;77.42;101475.81;4992952;28;20030;-82
2022/09/17 11:04:10;;;;;;;3.55;0.70;;;;;;;14.36;77.27;101484.69;5022042;28;20029;-85
2022/09/17 11:07:14;;;;;;;2.85;0.52;;;;;;;14.44;76.13;101472.69;5012449;28;21602;-83
2022/09/17 11:09:57;;;;;;;2.83;0.90;;;;;;;14.51;77.88;101479.19;5030435;28;20037;-83
2022/09/17 11:12:28;;;;;;;6.15;1.20;;;;;;;14.47;76.63;101475.09;5029593;28;20077;-82
2022/09/17 11:15:51;;;;;;;3.05;0.80;;;;;;;14.46;76.28;101476.91;5029857;28;20039;-91
2022/09/17 11:18:35;;;;;;;7.13;0.90;;;;;;;14.32;76.40;101470.00;4969127;28;20065;-93
2022/09/17 11:21:20;;;;;;;5.05;0.70;;;;;;;14.38;77.41;101472.16;4953903;28;20280;-89
2022/09/17 11:24:26;;;;;;;5.45;0.95;;;;;;;14.61;79.36;101465.06;5012834;28;20048;-91
2022/09/17 11:27:03;;;;;;;5.35;1.13;;;;;;;14.96;78.10;101458.69;5030413;28;20425;-90
2022/09/17 11:29:48;;;;;;;5.65;1.05;;;;;;;15.01;74.93;101454.69;5012730;28;20607;-94
2022/09/17 11:32:44;;;;;;;4.50;0.93;;;;;;;15.18;75.45;101455.94;4994135;28;20072;-89
2022/09/17 11:35:32;;;;;;;4.35;0.90;;;;;;;15.29;73.77;101460.34;5011483;28;20061;-92
2022/09/17 11:38:04;;;;;;;4.60;1.00;;;;;;;15.30;74.29;101454.09;5012515;28;20017;-92